createdAt,value
2017-07-05T00:00:16.424Z,13.60
2017-07-05T00:02:45.166Z,13.60
2017-07-05T00:05:13.076Z,13.60
2017-07-05T00:07:40.857Z,13.50
2017-07-05T00:10:07.815Z,13.50
2017-07-05T00:12:36.586Z,13.60
2017-07-05T00:15:03.565Z,13.40
2017-07-05T00:17:30.587Z,13.40
2017-07-05T00:19:57.542Z,13.30
2017-07-05T00:22:24.534Z,13.40
2017-07-05T00:24:51.483Z,13.30
2017-07-05T00:27:19.436Z,13.30
2017-07-05T00:29:46.385Z,13.30
2017-07-05T00:32:13.376Z,13.20
2017-07-05T00:34:41.112Z,13.20
2017-07-05T00:37:08.077Z,13.20
2017-07-05T00:39:36.844Z,13.10
2017-07-05T00:42:03.799Z,13.10
2017-07-05T00:44:31.773Z,13.20
2017-07-05T00:46:59.498Z,13.20
2017-07-05T00:49:26.455Z,13.20
2017-07-05T00:51:53.448Z,13.30
2017-07-05T00:54:20.402Z,13.20
2017-07-05T00:56:47.396Z,13.10
2017-07-05T00:59:14.349Z,13.10
2017-07-05T01:01:42.305Z,13.00
2017-07-05T01:04:10.464Z,13.10
2017-07-05T01:06:37.419Z,13.00
2017-07-05T01:09:04.366Z,13.00
2017-07-05T01:11:32.821Z,13.00
2017-07-05T01:13:59.772Z,12.90
2017-07-05T01:16:26.743Z,12.90
2017-07-05T01:18:53.705Z,12.90
2017-07-05T01:21:22.508Z,12.90
2017-07-05T01:23:51.447Z,12.90
2017-07-05T01:26:18.403Z,12.90
2017-07-05T01:28:45.367Z,12.80
2017-07-05T01:31:12.329Z,12.80
2017-07-05T01:33:40.058Z,12.80
2017-07-05T01:36:07.008Z,12.80
2017-07-05T01:38:33.996Z,12.80
2017-07-05T01:41:00.933Z,12.70
2017-07-05T01:43:28.695Z,12.80
2017-07-05T01:45:56.605Z,12.80
2017-07-05T01:48:23.611Z,12.80
2017-07-05T01:50:50.566Z,12.70
2017-07-05T01:53:17.544Z,12.70
2017-07-05T01:55:44.525Z,12.60
2017-07-05T01:58:11.523Z,12.60
2017-07-05T02:00:38.469Z,12.60
2017-07-05T02:03:06.436Z,12.60
2017-07-05T02:05:33.493Z,12.50
2017-07-05T02:08:00.437Z,12.50
2017-07-05T02:10:28.252Z,12.50
2017-07-05T02:12:55.988Z,12.50
2017-07-05T02:15:23.472Z,12.50
2017-07-05T02:17:51.216Z,12.40
2017-07-05T02:20:18.172Z,12.40
2017-07-05T02:22:46.119Z,12.50
2017-07-05T02:25:13.077Z,12.60
2017-07-05T02:27:40.070Z,12.50
2017-07-05T02:30:07.032Z,12.50
2017-07-05T02:32:33.991Z,12.50
2017-07-05T02:35:00.979Z,12.40
2017-07-05T02:37:27.938Z,12.40
2017-07-05T02:39:55.857Z,12.40
2017-07-05T02:42:22.811Z,12.50
2017-07-05T02:44:49.771Z,12.50
2017-07-05T02:47:18.515Z,12.40
2017-07-05T02:49:46.520Z,12.40
2017-07-05T02:52:14.245Z,12.30
2017-07-05T02:54:41.196Z,12.30
2017-07-05T02:57:08.171Z,12.30
2017-07-05T02:59:35.887Z,12.20
2017-07-05T03:02:02.849Z,12.10
2017-07-05T03:04:29.796Z,12.10
2017-07-05T03:06:56.776Z,12.20
2017-07-05T03:09:23.737Z,12.20
2017-07-05T03:11:50.755Z,12.10
2017-07-05T03:14:17.712Z,12.10
2017-07-05T03:16:45.470Z,12.20
2017-07-05T03:19:12.465Z,12.20
2017-07-05T03:21:39.428Z,12.30
2017-07-05T03:24:06.404Z,12.30
2017-07-05T03:26:34.123Z,12.20
2017-07-05T03:29:02.136Z,12.20
2017-07-05T03:31:29.860Z,12.20
2017-07-05T03:33:59.155Z,12.20
2017-07-05T03:36:26.102Z,12.30
2017-07-05T03:38:53.064Z,12.20
2017-07-05T03:41:20.895Z,12.10
2017-07-05T03:43:47.879Z,12.20
2017-07-05T03:46:15.756Z,12.10
2017-07-05T03:48:42.708Z,12.20
2017-07-05T03:51:09.683Z,12.20
2017-07-05T03:53:36.641Z,12.20
2017-07-05T03:56:04.604Z,12.20
2017-07-05T03:58:31.548Z,12.20
2017-07-05T04:00:58.509Z,12.20
2017-07-05T04:03:26.535Z,12.20
2017-07-05T04:05:54.250Z,12.30
2017-07-05T04:08:21.239Z,12.30
2017-07-05T04:10:48.952Z,12.60
2017-07-05T04:13:15.900Z,12.50
2017-07-05T04:15:42.871Z,12.50
2017-07-05T04:18:10.815Z,12.50
2017-07-05T04:20:37.803Z,12.60
2017-07-05T04:23:05.509Z,12.70
2017-07-05T04:25:32.466Z,12.70
2017-07-05T04:27:59.419Z,12.60
2017-07-05T04:30:26.393Z,12.60
2017-07-05T04:32:53.341Z,12.70
2017-07-05T04:35:20.302Z,12.70
2017-07-05T04:37:49.024Z,12.70
2017-07-05T04:40:16.017Z,12.70
2017-07-05T04:42:43.947Z,12.70
2017-07-05T04:45:10.897Z,12.90
2017-07-05T04:47:37.891Z,13.00
2017-07-05T04:50:05.604Z,13.20
2017-07-05T04:52:32.585Z,13.20
2017-07-05T04:55:00.247Z,13.30
2017-07-05T04:57:27.231Z,13.30
2017-07-05T04:59:54.184Z,13.30
2017-07-05T05:02:21.196Z,13.30
2017-07-05T05:04:48.916Z,13.50
2017-07-05T05:07:15.866Z,13.50
2017-07-05T05:09:42.842Z,13.60
2017-07-05T05:12:10.569Z,13.80
2017-07-05T05:14:37.680Z,13.80
2017-07-05T05:17:05.576Z,13.70
2017-07-05T05:19:32.532Z,14.00
2017-07-05T05:21:59.533Z,14.00
2017-07-05T05:24:26.490Z,13.80
2017-07-05T05:26:53.498Z,13.80
2017-07-05T05:29:21.415Z,14.00
2017-07-05T05:31:48.364Z,13.80
2017-07-05T05:34:15.341Z,13.80
2017-07-05T05:36:42.292Z,13.80
2017-07-05T05:39:09.248Z,13.80
2017-07-05T05:41:37.019Z,13.60
2017-07-05T05:44:04.738Z,13.80
2017-07-05T05:46:32.718Z,13.80
2017-07-05T05:49:00.514Z,14.10
2017-07-05T05:51:28.245Z,14.30
2017-07-05T05:53:55.251Z,14.30
2017-07-05T05:56:22.204Z,14.50
2017-07-05T05:58:49.197Z,14.60
2017-07-05T06:01:16.157Z,14.50
2017-07-05T06:03:43.165Z,14.40
2017-07-05T06:06:10.113Z,14.60
2017-07-05T06:08:38.096Z,14.60
2017-07-05T06:11:05.049Z,14.20
2017-07-05T06:13:32.065Z,13.80
2017-07-05T06:15:59.012Z,13.70
2017-07-05T06:18:25.966Z,13.90
2017-07-05T06:20:52.959Z,14.30
2017-07-05T06:23:21.791Z,14.40
2017-07-05T06:25:48.785Z,14.60
2017-07-05T06:28:16.532Z,14.90
2017-07-05T06:30:43.510Z,14.80
2017-07-05T06:33:10.460Z,14.90
2017-07-05T06:35:38.396Z,14.90
2017-07-05T06:38:06.115Z,14.70
2017-07-05T06:40:34.135Z,14.70
2017-07-05T06:43:03.842Z,14.60
2017-07-05T06:45:32.497Z,14.60
2017-07-05T06:47:59.449Z,14.60
2017-07-05T06:50:26.419Z,14.80
2017-07-05T06:52:54.126Z,15.00
2017-07-05T06:55:22.024Z,15.00
2017-07-05T06:57:48.977Z,15.10
2017-07-05T07:00:15.982Z,15.50
2017-07-05T07:02:42.936Z,15.80
2017-07-05T07:05:09.891Z,16.10
2017-07-05T07:07:36.872Z,15.90
2017-07-05T07:10:05.503Z,16.10
2017-07-05T07:12:32.480Z,16.10
2017-07-05T07:14:59.453Z,16.10
2017-07-05T07:17:27.199Z,15.00
2017-07-05T07:19:54.163Z,15.00
2017-07-05T07:22:21.906Z,15.80
2017-07-05T07:24:48.882Z,15.80
2017-07-05T07:27:15.873Z,16.80
2017-07-05T07:29:42.831Z,17.30
2017-07-05T07:32:10.793Z,17.60
2017-07-05T07:34:39.658Z,17.50
2017-07-05T07:37:06.632Z,16.30
2017-07-05T07:39:34.605Z,15.60
2017-07-05T07:42:01.583Z,16.00
2017-07-05T07:44:29.309Z,17.10
2017-07-05T07:46:57.224Z,17.10
2017-07-05T07:49:24.171Z,17.60
2017-07-05T07:51:51.169Z,17.40
2017-07-05T07:54:19.142Z,16.50
2017-07-05T07:56:47.112Z,15.90
2017-07-05T07:59:15.052Z,16.10
2017-07-05T08:01:43.082Z,16.40
2017-07-05T08:04:11.869Z,17.00
2017-07-05T08:06:38.869Z,17.00
2017-07-05T08:09:10.317Z,16.90
2017-07-05T08:11:37.276Z,16.70
2017-07-05T08:14:04.392Z,16.80
2017-07-05T08:16:31.358Z,16.90
2017-07-05T08:18:59.243Z,16.80
2017-07-05T08:21:26.249Z,16.60
2017-07-05T08:23:53.222Z,16.10
2017-07-05T08:26:20.172Z,16.60
2017-07-05T08:28:53.525Z,17.10
2017-07-05T08:31:20.487Z,17.20
2017-07-05T08:33:47.533Z,16.50
2017-07-05T08:36:14.528Z,16.30
2017-07-05T08:38:43.267Z,17.50
2017-07-05T08:41:10.241Z,17.40
2017-07-05T08:43:37.192Z,18.10
2017-07-05T08:46:04.196Z,18.00
2017-07-05T08:48:31.156Z,16.90
2017-07-05T08:50:59.124Z,16.90
2017-07-05T08:53:26.105Z,17.30
2017-07-05T08:55:53.846Z,18.20
2017-07-05T08:58:20.836Z,18.20
2017-07-05T09:00:47.819Z,18.80
2017-07-05T09:03:16.738Z,17.70
2017-07-05T09:05:43.707Z,17.00
2017-07-05T09:08:13.368Z,17.40
2017-07-05T09:10:42.264Z,17.40
2017-07-05T09:13:09.225Z,17.50
2017-07-05T09:15:36.175Z,18.40
2017-07-05T09:18:03.155Z,18.50
2017-07-05T09:20:30.230Z,18.30
2017-07-05T09:22:57.218Z,18.90
2017-07-05T09:25:24.977Z,17.90
2017-07-05T09:27:52.956Z,17.90
2017-07-05T09:30:21.601Z,17.80
2017-07-05T09:32:49.596Z,17.80
2017-07-05T09:35:16.574Z,18.60
2017-07-05T09:37:43.549Z,18.60
2017-07-05T09:40:10.528Z,18.90
2017-07-05T09:42:37.509Z,19.50
2017-07-05T09:45:05.501Z,18.50
2017-07-05T09:47:32.480Z,17.80
2017-07-05T09:49:59.641Z,17.20
2017-07-05T09:52:27.559Z,17.10
2017-07-05T09:54:54.517Z,17.70
2017-07-05T09:57:21.517Z,18.30
2017-07-05T09:59:48.484Z,18.70
2017-07-05T10:02:15.440Z,18.70
2017-07-05T10:04:42.420Z,18.90
2017-07-05T10:07:10.152Z,18.50
2017-07-05T10:09:37.157Z,18.50
2017-07-05T10:12:06.448Z,19.20
2017-07-05T10:14:34.342Z,19.00
2017-07-05T10:17:01.296Z,18.20
2017-07-05T10:19:28.268Z,17.80
2017-07-05T10:21:55.244Z,18.30
2017-07-05T10:24:22.196Z,18.80
2017-07-05T10:26:49.193Z,19.30
2017-07-05T10:29:16.158Z,19.10
2017-07-05T10:31:43.932Z,18.40
2017-07-05T10:34:10.949Z,18.30
2017-07-05T10:36:37.931Z,18.90
2017-07-05T10:39:04.887Z,18.60
2017-07-05T10:41:31.883Z,18.00
2017-07-05T10:43:58.889Z,17.70
2017-07-05T10:46:25.845Z,17.90
2017-07-05T10:48:53.836Z,18.20
2017-07-05T10:51:20.829Z,18.80
2017-07-05T10:53:47.779Z,18.80
2017-07-05T10:56:14.784Z,19.00
2017-07-05T10:58:41.738Z,19.30
2017-07-05T11:01:09.510Z,19.50
2017-07-05T11:03:36.473Z,19.50
2017-07-05T11:06:03.449Z,19.70
2017-07-05T11:08:30.490Z,19.90
2017-07-05T11:10:57.449Z,19.90
2017-07-05T11:13:25.441Z,20.20
2017-07-05T11:15:54.372Z,20.00
2017-07-05T11:18:21.368Z,19.60
2017-07-05T11:20:49.088Z,20.20
2017-07-05T11:23:22.547Z,20.20
2017-07-05T11:25:49.507Z,20.00
2017-07-05T11:28:16.464Z,20.20
2017-07-05T11:30:43.456Z,20.50
2017-07-05T11:33:11.185Z,20.00
2017-07-05T11:35:39.184Z,20.00
2017-07-05T11:38:06.172Z,19.60
2017-07-05T11:40:33.128Z,19.90
2017-07-05T11:43:00.090Z,20.20
2017-07-05T11:45:27.037Z,19.70
2017-07-05T11:47:54.043Z,20.20
2017-07-05T11:50:21.007Z,20.50
2017-07-05T11:52:48.008Z,20.70
2017-07-05T11:55:15.933Z,20.50
2017-07-05T11:57:42.948Z,20.50
2017-07-05T12:00:10.676Z,20.20
2017-07-05T12:02:38.651Z,20.20
2017-07-05T12:05:05.639Z,20.50
2017-07-05T12:07:32.614Z,20.40
2017-07-05T12:09:59.608Z,20.00
2017-07-05T12:12:26.605Z,19.30
2017-07-05T12:14:53.562Z,19.40
2017-07-05T12:17:20.506Z,19.70
2017-07-05T12:19:47.505Z,20.20
2017-07-05T12:22:14.627Z,20.60
2017-07-05T12:24:41.581Z,20.50
2017-07-05T12:27:09.523Z,20.60
2017-07-05T13:13:18.062Z,21.40
2017-07-05T13:15:46.050Z,22.00
2017-07-05T13:18:13.796Z,21.40
2017-07-05T13:20:40.764Z,21.40
2017-07-05T13:23:08.520Z,21.30
2017-07-05T13:25:37.272Z,21.60
2017-07-05T13:28:05.278Z,21.60
2017-07-05T13:30:33.004Z,21.70
2017-07-05T13:32:59.981Z,21.70
2017-07-05T13:35:27.728Z,27.90
2017-07-05T13:37:54.696Z,27.80
2017-07-05T13:40:22.427Z,28.40
2017-07-05T13:42:49.448Z,28.40
2017-07-05T13:45:16.436Z,31.00
2017-07-05T13:47:43.442Z,30.80
2017-07-05T13:50:10.407Z,30.40
2017-07-05T13:52:37.394Z,30.80
2017-07-05T13:55:05.147Z,31.60
2017-07-05T13:57:32.891Z,31.40
2017-07-05T14:00:02.892Z,31.40
2017-07-05T14:02:31.167Z,31.90
2017-07-05T14:04:58.137Z,30.60
2017-07-05T14:07:30.734Z,31.70
2017-07-05T14:09:58.664Z,31.30
2017-07-05T14:12:27.435Z,28.20
2017-07-05T14:14:56.357Z,28.20
2017-07-05T14:17:24.291Z,29.00
2017-07-05T14:19:51.660Z,27.90
2017-07-05T14:22:18.620Z,30.10
2017-07-05T14:24:46.334Z,31.00
2017-07-05T14:27:13.320Z,31.10
2017-07-05T14:29:41.070Z,31.50
2017-07-05T14:32:08.065Z,31.50
2017-07-05T14:34:35.038Z,30.90
2017-07-05T14:37:03.932Z,31.00
2017-07-05T14:39:30.917Z,29.40
2017-07-05T14:41:58.648Z,30.80
2017-07-05T14:44:26.641Z,30.80
2017-07-05T14:46:53.597Z,31.10
2017-07-05T14:49:20.583Z,31.50
2017-07-05T14:51:48.566Z,30.90
2017-07-05T14:54:16.316Z,29.50
2017-07-05T14:56:43.282Z,29.50
2017-07-05T14:59:11.026Z,28.10
2017-07-05T15:01:37.989Z,28.10
2017-07-05T15:04:05.722Z,28.00
2017-07-05T15:06:32.770Z,28.00
2017-07-05T15:09:00.715Z,27.60
2017-07-05T15:11:28.712Z,28.80
2017-07-05T15:13:55.672Z,27.70
2017-07-05T15:16:23.420Z,29.60
2017-07-05T15:18:50.420Z,29.60
2017-07-05T15:21:17.383Z,29.70
2017-07-05T15:23:46.315Z,27.50
2017-07-05T15:26:14.049Z,24.20
2017-07-05T15:28:41.037Z,24.20
2017-07-05T15:31:08.006Z,25.40
2017-07-05T15:33:35.957Z,27.00
2017-07-05T15:36:02.920Z,27.00
2017-07-05T15:38:29.909Z,27.80
2017-07-05T15:40:57.861Z,30.10
2017-07-05T15:43:24.865Z,30.50
2017-07-05T15:45:51.843Z,31.30
2017-07-05T15:48:18.805Z,30.10
2017-07-05T15:50:45.783Z,29.60
2017-07-05T15:53:13.757Z,30.10
2017-07-05T15:55:41.095Z,28.10
2017-07-05T15:58:08.088Z,28.70
2017-07-05T16:00:35.073Z,28.90
2017-07-05T16:03:02.045Z,29.80
2017-07-05T16:05:29.031Z,29.20
2017-07-05T16:07:58.708Z,28.70
2017-07-05T16:10:25.689Z,28.70
2017-07-05T16:12:52.639Z,28.70
2017-07-05T16:15:20.550Z,29.30
2017-07-05T16:17:48.533Z,29.30
2017-07-05T16:20:15.540Z,29.00
2017-07-05T16:22:42.496Z,26.60
2017-07-05T16:25:10.427Z,27.80
2017-07-05T16:27:38.361Z,27.20
2017-07-05T16:30:07.350Z,28.20
2017-07-05T16:32:34.327Z,29.30
2017-07-05T16:35:01.279Z,28.50
2017-07-05T16:37:29.018Z,26.20
2017-07-05T16:39:55.973Z,26.20
2017-07-05T16:42:22.942Z,28.60
2017-07-05T16:44:51.888Z,28.90
2017-07-05T16:47:18.892Z,28.70
2017-07-05T16:49:45.847Z,27.90
2017-07-05T16:52:12.904Z,26.50
2017-07-05T16:54:39.908Z,28.30
2017-07-05T16:57:07.632Z,28.90
2017-07-05T16:59:34.659Z,28.90
2017-07-05T17:02:01.642Z,28.00
2017-07-05T17:04:28.592Z,27.90
2017-07-05T17:06:56.535Z,27.90
2017-07-05T17:09:23.488Z,28.60
2017-07-05T17:11:51.533Z,28.10
2017-07-05T17:14:18.484Z,25.80
2017-07-05T17:16:45.460Z,26.60
2017-07-05T17:19:13.334Z,25.60
2017-07-05T17:21:41.292Z,25.00
2017-07-05T17:24:09.218Z,25.30
2017-07-05T17:26:36.205Z,27.10
2017-07-05T17:29:03.159Z,27.90
2017-07-05T17:31:30.132Z,27.30
2017-07-05T17:33:57.860Z,27.50
2017-07-05T17:36:24.837Z,27.40
2017-07-05T17:38:53.477Z,24.60
2017-07-05T17:41:20.436Z,24.60
2017-07-05T17:43:47.432Z,25.30
2017-07-05T17:46:15.334Z,24.10
2017-07-05T17:48:42.358Z,22.70
2017-07-05T17:51:09.329Z,20.90
2017-07-05T17:53:36.328Z,20.40
2017-07-05T17:56:04.219Z,20.10
2017-07-05T17:58:32.122Z,20.10
2017-07-05T18:01:00.080Z,20.00
2017-07-05T18:03:27.082Z,19.60
2017-07-05T18:05:54.154Z,19.50
2017-07-05T18:08:21.146Z,19.40
2017-07-05T18:10:48.885Z,19.30
2017-07-05T18:13:17.780Z,19.20
2017-07-05T18:15:44.806Z,18.90
2017-07-05T18:18:11.775Z,18.90
2017-07-05T18:20:38.756Z,19.00
2017-07-05T18:23:06.515Z,18.90
2017-07-05T18:25:34.272Z,18.80
2017-07-05T18:28:03.112Z,18.50
2017-07-05T18:30:30.069Z,18.50
2017-07-05T18:32:57.396Z,18.60
2017-07-05T18:35:24.409Z,18.40
2017-07-05T18:37:52.132Z,18.50
2017-07-05T18:40:20.146Z,18.40
2017-07-05T18:42:47.858Z,18.30
2017-07-05T18:45:14.889Z,18.30
2017-07-05T18:47:43.804Z,18.20
2017-07-05T18:50:10.756Z,18.20
2017-07-05T18:52:38.740Z,18.10
2017-07-05T18:55:05.749Z,18.00
2017-07-05T18:57:33.637Z,17.90
2017-07-05T19:00:01.548Z,17.80
2017-07-05T19:02:29.260Z,17.80
2017-07-05T19:04:57.248Z,17.70
2017-07-05T20:29:21.641Z,15.70
2017-07-05T20:31:48.601Z,15.70
2017-07-05T20:34:15.580Z,15.50
2017-07-05T20:36:43.302Z,15.40
2017-07-05T20:39:10.290Z,15.40
2017-07-05T20:41:37.996Z,15.30
2017-07-05T20:44:04.989Z,15.30
2017-07-05T20:46:31.969Z,15.30
2017-07-05T20:48:58.961Z,15.30
2017-07-05T20:51:25.920Z,15.20
2017-07-05T20:53:52.911Z,15.20
2017-07-05T20:56:19.869Z,15.10
2017-07-05T20:58:46.830Z,15.10
2017-07-05T21:01:13.948Z,15.10
2017-07-05T21:03:40.952Z,15.00
2017-07-05T21:06:07.935Z,14.90
2017-07-05T21:08:35.835Z,14.80
2017-07-05T21:11:03.828Z,14.80
2017-07-05T21:13:30.782Z,14.80
2017-07-05T21:15:57.761Z,14.70
2017-07-05T21:18:25.660Z,14.70
2017-07-05T21:20:52.644Z,14.70
2017-07-05T21:23:20.372Z,14.80
2017-07-05T21:25:47.348Z,14.80
2017-07-05T21:28:15.068Z,14.70
2017-07-05T21:30:42.049Z,14.70
2017-07-05T21:33:09.004Z,14.60
2017-07-05T21:35:36.745Z,14.50
2017-07-05T21:38:03.682Z,14.50
2017-07-05T21:40:30.652Z,14.40
2017-07-05T21:42:57.608Z,14.40
2017-07-05T21:45:24.623Z,14.40
2017-07-05T21:47:51.729Z,14.40
2017-07-05T21:50:19.476Z,14.40
2017-07-05T21:52:48.216Z,14.30
2017-07-05T21:55:15.172Z,14.30
2017-07-05T21:57:42.156Z,14.20
2017-07-05T22:00:09.884Z,14.20
2017-07-05T22:02:36.868Z,14.20
2017-07-05T22:05:03.852Z,14.30
2017-07-05T22:07:30.828Z,14.20
2017-07-05T22:09:57.794Z,14.20
2017-07-05T22:12:25.551Z,14.10
2017-07-05T22:14:53.276Z,14.00
2017-07-05T22:17:20.284Z,13.90
2017-07-05T22:19:47.245Z,14.00
2017-07-05T22:22:15.342Z,14.00
2017-07-05T22:24:42.285Z,13.80
2017-07-05T22:27:09.243Z,13.80
2017-07-05T22:29:36.216Z,13.90
2017-07-05T22:32:03.946Z,13.80
2017-07-05T22:34:30.930Z,13.70
2017-07-05T22:36:58.671Z,13.80
2017-07-05T22:39:25.623Z,13.80
2017-07-05T22:41:52.600Z,13.90
2017-07-05T22:44:19.551Z,13.80
2017-07-05T22:46:46.609Z,13.70
2017-07-05T22:49:13.560Z,13.60
2017-07-05T22:51:40.557Z,13.50
2017-07-05T22:54:07.508Z,13.50
2017-07-05T22:56:34.514Z,13.40
2017-07-05T22:59:01.471Z,13.40
2017-07-05T23:01:28.451Z,13.50
2017-07-05T23:03:55.410Z,13.40
2017-07-05T23:06:22.534Z,13.40
2017-07-05T23:08:49.474Z,13.30
2017-07-05T23:11:16.435Z,13.30
2017-07-05T23:13:43.434Z,13.20
2017-07-05T23:16:11.155Z,13.20
2017-07-05T23:18:38.905Z,13.20
2017-07-05T23:21:05.867Z,13.20
2017-07-05T23:23:33.626Z,13.40
2017-07-05T23:26:00.587Z,13.40
2017-07-05T23:28:28.309Z,13.40
2017-07-05T23:30:55.281Z,13.40
2017-07-05T23:33:22.229Z,13.10
2017-07-05T23:35:49.316Z,13.10
2017-07-05T23:38:16.259Z,12.90
2017-07-05T23:40:43.224Z,12.90
2017-07-05T23:43:10.190Z,12.80
2017-07-05T23:45:38.184Z,12.80
2017-07-05T23:48:05.137Z,12.70
2017-07-05T23:50:32.889Z,13.00
2017-07-05T23:52:59.853Z,12.90
2017-07-05T23:55:27.600Z,13.00
2017-07-05T23:57:54.588Z,13.00
